Time;durP1;ratioP1;P1;durP2;ratioP2;P2;SDS_P1;SDS_P2;PMS_P1;PMS_P2;Temp;Humidity;BMP_temperature;BMP_pressure;BME280_temperature;BME280_humidity;BME280_pressure;Samples;Min_cycle;Max_cycle;Signal;HPM_P1;HPM_P2
2022/05/08 00:01:35;;;;;;;26.42;15.50;;;;;;;9.40;63.47;100848.31;1981543;89;29980;-67
2022/05/08 00:04:36;;;;;;;22.90;14.47;;;;;;;9.49;63.58;100873.84;1981421;89;31278;-63
2022/05/08 00:07:38;;;;;;;22.20;16.02;;;;;;;9.43;63.58;100872.27;1981318;89;33849;-62
2022/05/08 00:10:40;;;;;;;24.12;16.45;;;;;;;9.38;63.82;100870.22;1981693;89;29456;-61
2022/05/08 00:13:43;;;;;;;26.65;15.03;;;;;;;9.32;64.13;100870.45;1981721;89;27752;-61
2022/05/08 00:16:45;;;;;;;22.42;15.35;;;;;;;9.27;63.80;100868.39;1981835;89;28742;-62
2022/05/08 00:19:49;;;;;;;26.27;15.45;;;;;;;9.23;63.88;100866.75;1983039;89;31472;-61
2022/05/08 00:22:51;;;;;;;23.57;15.38;;;;;;;9.20;63.90;100867.73;1982942;89;32971;-61
2022/05/08 00:25:53;;;;;;;24.72;16.25;;;;;;;9.19;64.31;100868.66;1983052;89;29373;-62
2022/05/08 00:28:55;;;;;;;24.72;15.48;;;;;;;9.17;64.47;100863.83;1983424;89;27696;-66
2022/05/08 00:31:58;;;;;;;25.17;16.45;;;;;;;9.16;64.48;100861.22;2008844;84;28746;-60
2022/05/08 00:35:00;;;;;;;26.70;17.10;;;;;;;9.15;64.71;100866.16;2034028;87;31527;-60
2022/05/08 00:38:02;;;;;;;25.82;17.12;;;;;;;9.11;64.83;100862.25;2027587;87;33510;-60
2022/05/08 00:41:06;;;;;;;28.57;18.25;;;;;;;9.09;65.21;100856.55;2032505;87;30531;-60
2022/05/08 00:44:09;;;;;;;27.87;18.87;;;;;;;9.03;65.06;100862.95;2033154;87;27707;-61
2022/05/08 00:47:11;;;;;;;28.45;19.65;;;;;;;9.02;65.27;100865.70;2033434;87;29919;-61
2022/05/08 00:50:13;;;;;;;24.75;16.95;;;;;;;8.97;65.46;100864.52;2030253;87;31205;-60
2022/05/08 00:53:16;;;;;;;26.90;17.90;;;;;;;8.92;65.34;100867.36;2033569;87;33937;-61
2022/05/08 00:56:20;;;;;;;29.00;17.40;;;;;;;8.88;65.16;100858.13;2033371;87;30550;-61
2022/05/08 00:59:22;;;;;;;27.98;18.02;;;;;;;8.84;65.38;100857.37;2021944;87;28285;-60
2022/05/08 01:02:24;;;;;;;25.15;17.60;;;;;;;8.79;65.39;100858.88;2017530;87;29235;-62
2022/05/08 01:05:27;;;;;;;29.00;18.00;;;;;;;8.74;65.68;100860.81;2033399;87;31234;-61
2022/05/08 01:08:29;;;;;;;23.42;17.45;;;;;;;8.69;65.78;100863.22;2026153;87;34228;-61
2022/05/08 01:11:31;;;;;;;32.70;18.90;;;;;;;8.65;65.65;100867.33;2016446;88;30180;-62
2022/05/08 01:14:33;;;;;;;36.25;19.92;;;;;;;8.63;65.63;100866.97;2016526;87;27681;-64
2022/05/08 01:17:35;;;;;;;28.42;17.95;;;;;;;8.59;65.64;100865.31;2017165;87;28704;-61
2022/05/08 01:20:37;;;;;;;29.90;18.73;;;;;;;8.56;65.69;100861.41;2016955;87;30626;-61
2022/05/08 01:23:40;;;;;;;35.30;18.05;;;;;;;8.53;65.78;100860.16;2023825;87;33831;-62
2022/05/08 01:26:42;;;;;;;32.83;20.15;;;;;;;8.50;65.84;100867.82;2033661;87;29147;-61
2022/05/08 01:29:44;;;;;;;26.95;17.62;;;;;;;8.47;66.04;100863.87;2020767;87;27706;-61
2022/05/08 01:32:46;;;;;;;31.05;19.73;;;;;;;8.42;65.98;100861.36;2030608;87;28804;-61
2022/05/08 01:35:49;;;;;;;29.55;18.60;;;;;;;8.38;66.47;100857.03;2042517;87;32252;-62
2022/05/08 01:38:51;;;;;;;30.08;20.97;;;;;;;8.36;66.40;100857.53;2042332;87;32942;-61
2022/05/08 01:41:54;;;;;;;31.62;20.85;;;;;;;8.33;66.59;100859.85;2042161;87;30526;-61
2022/05/08 01:44:55;;;;;;;28.62;19.65;;;;;;;8.31;66.82;100863.02;2042467;87;27743;-60
2022/05/08 01:51:20;;;;;;;31.20;20.30;;;;;;;8.24;66.64;100865.48;2041512;87;32278;-63
2022/05/08 01:54:22;;;;;;;32.78;20.88;;;;;;;8.21;66.99;100863.77;2042729;87;33599;-61
2022/05/08 01:57:25;;;;;;;35.15;19.87;;;;;;;8.18;67.11;100864.33;2042304;87;30198;-61
2022/05/08 02:00:27;;;;;;;32.15;19.45;;;;;;;8.15;67.08;100863.08;2041903;87;27708;-62
2022/05/08 02:03:29;;;;;;;32.83;20.08;;;;;;;8.11;66.98;100855.64;2041666;87;29650;-62
2022/05/08 02:06:31;;;;;;;25.23;19.35;;;;;;;8.09;66.99;100865.48;2042283;87;32430;-62
2022/05/08 02:09:33;;;;;;;30.95;20.52;;;;;;;8.08;67.21;100863.73;2042403;87;33323;-61
2022/05/08 02:12:34;;;;;;;27.85;19.30;;;;;;;8.05;67.51;100865.16;2041830;87;30445;-62
2022/05/08 02:15:37;;;;;;;27.42;19.05;;;;;;;8.02;67.32;100863.94;2042887;87;27603;-62
2022/05/08 02:18:39;;;;;;;28.52;19.65;;;;;;;7.97;67.44;100863.19;2042484;87;28641;-61
2022/05/08 02:21:41;;;;;;;29.48;19.30;;;;;;;7.94;67.62;100858.83;2042168;87;32243;-61
2022/05/08 02:24:44;;;;;;;29.10;18.57;;;;;;;7.91;67.56;100861.11;2042509;87;32874;-61
2022/05/08 02:27:49;;;;;;;28.98;19.35;;;;;;;7.88;67.44;100858.53;2042243;87;30139;-61
2022/05/08 02:30:50;;;;;;;29.55;20.02;;;;;;;7.87;67.53;100866.59;2042477;87;28210;-61
2022/05/08 02:33:53;;;;;;;37.50;20.32;;;;;;;7.85;67.90;100867.98;2032032;87;29075;-61
2022/05/08 02:36:56;;;;;;;31.33;20.70;;;;;;;7.85;67.91;100873.75;2034007;87;32303;-62
2022/05/08 02:39:59;;;;;;;32.28;21.33;;;;;;;7.84;68.13;100869.34;2034962;87;33016;-61
2022/05/08 02:43:01;;;;;;;25.43;19.67;;;;;;;7.81;68.05;100869.42;2036118;87;29326;-61
2022/05/08 02:46:03;;;;;;;27.73;19.52;;;;;;;7.79;68.15;100868.59;2033680;87;27613;-62
2022/05/08 02:49:06;;;;;;;34.27;20.72;;;;;;;7.77;68.34;100869.12;2030000;87;28769;-62
2022/05/08 02:52:08;;;;;;;29.52;19.75;;;;;;;7.73;68.50;100870.53;2029969;87;31238;-61
2022/05/08 02:58:35;;;;;;;28.95;20.08;;;;;;;7.67;68.38;100875.17;2035914;87;30201;-61
2022/05/08 03:01:37;;;;;;;;;;;;;;;7.63;68.39;100873.03;2038364;87;27700;-62
2022/05/08 03:04:41;;;;;;;27.58;19.10;;;;;;;7.61;68.40;100881.55;2035499;87;27835;-62
2022/05/08 03:07:45;;;;;;;29.80;21.05;;;;;;;7.59;68.49;100877.58;2033638;87;31430;-61
2022/05/08 03:14:09;;;;;;;33.18;20.55;;;;;;;7.57;68.56;100888.74;2035758;87;29676;-61
2022/05/08 03:17:11;;;;;;;35.08;21.17;;;;;;;7.58;68.85;100894.97;2031624;87;27722;-62
2022/05/08 03:20:13;;;;;;;27.80;20.15;;;;;;;7.59;68.95;100892.72;2029351;87;28443;-61
2022/05/08 03:23:15;;;;;;;31.42;19.70;;;;;;;7.58;69.00;100885.64;2029969;87;31525;-61
2022/05/08 03:26:20;;;;;;;33.10;21.05;;;;;;;7.58;68.92;100890.49;2032970;87;33874;-62
2022/05/08 03:29:22;;;;;;;;;;;;;;;7.60;69.06;100891.33;2038679;87;30161;-62
2022/05/08 03:32:23;;;;;;;28.12;19.07;;;;;;;7.65;69.19;100889.86;2035808;87;27736;-62
2022/05/08 03:35:26;;;;;;;28.40;19.77;;;;;;;7.66;69.32;100892.09;2035126;87;29949;-62
2022/05/08 03:38:28;;;;;;;27.52;20.15;;;;;;;7.70;69.33;100895.06;2029898;87;32121;-62
2022/05/08 03:41:30;;;;;;;33.70;19.32;;;;;;;7.74;69.21;100891.40;2029800;87;34163;-62
2022/05/08 03:44:32;;;;;;;29.15;19.27;;;;;;;7.80;69.29;100891.23;2030303;87;30244;-61
2022/05/08 03:47:35;;;;;;;31.40;21.75;;;;;;;7.87;69.34;100883.92;2030262;87;28171;-62
2022/05/08 03:50:37;;;;;;;30.88;20.70;;;;;;;7.95;69.33;100891.70;2029898;87;29947;-62
2022/05/08 03:53:38;;;;;;;28.25;19.20;;;;;;;8.03;69.29;100884.33;2030386;87;31757;-62
2022/05/08 03:56:40;;;;;;;30.02;19.85;;;;;;;8.11;69.26;100880.99;2035735;87;34201;-62
2022/05/08 03:59:42;;;;;;;30.88;20.15;;;;;;;8.21;69.18;100886.45;2035208;87;30579;-61
2022/05/08 04:02:44;;;;;;;29.87;21.85;;;;;;;8.30;69.24;100889.30;2036349;87;27702;-62
2022/05/08 04:05:46;;;;;;;29.77;21.45;;;;;;;8.39;69.46;100893.48;2031349;87;29896;-61
2022/05/08 04:08:48;;;;;;;35.43;21.50;;;;;;;8.49;69.44;100895.45;2029953;87;31534;-61
2022/05/08 04:11:49;;;;;;;31.62;21.23;;;;;;;8.58;69.50;100888.50;2029872;87;34196;-62
2022/05/08 04:14:51;;;;;;;27.22;20.43;;;;;;;8.70;69.42;100891.69;2032962;87;29260;-62
2022/05/08 04:17:53;;;;;;;29.80;21.60;;;;;;;8.83;69.31;100894.84;2036316;87;27624;-62
2022/05/08 04:20:55;;;;;;;33.30;23.02;;;;;;;8.95;69.31;100891.28;2036159;87;29528;-61
2022/05/08 04:27:17;;;;;;;37.55;24.05;;;;;;;9.22;69.35;100895.30;2030437;87;32871;-61
2022/05/08 04:30:19;;;;;;;28.75;22.93;;;;;;;9.38;69.38;100898.30;2030153;87;30202;-61
2022/05/08 04:33:21;;;;;;;35.75;23.45;;;;;;;9.53;69.37;100903.58;2030120;87;27633;-61
2022/05/08 04:36:22;;;;;;;35.58;23.62;;;;;;;9.69;69.31;100896.34;2034120;87;30090;-61
2022/05/08 04:39:25;;;;;;;35.33;22.85;;;;;;;9.87;69.26;100901.47;2032217;87;32272;-62
2022/05/08 04:42:27;;;;;;;29.92;20.75;;;;;;;10.08;69.22;100910.52;2034263;87;33849;-61
2022/05/08 04:45:29;;;;;;;31.68;21.25;;;;;;;10.29;69.09;100908.81;2030094;87;30655;-61
2022/05/08 04:48:31;;;;;;;30.35;22.40;;;;;;;10.61;69.16;100925.47;2029436;87;28217;-61
2022/05/08 04:51:33;;;;;;;31.82;22.52;;;;;;;11.39;69.25;100930.33;2030172;87;29678;-62
2022/05/08 04:54:35;;;;;;;31.62;24.23;;;;;;;12.36;68.95;100925.63;2035260;87;31228;-62
2022/05/08 04:57:37;;;;;;;32.45;24.63;;;;;;;13.30;68.02;100916.99;2036215;87;33002;-62
2022/05/08 05:00:40;;;;;;;31.17;24.07;;;;;;;14.19;66.86;100915.07;2035979;87;30543;-62
2022/05/08 05:03:42;;;;;;;30.72;22.85;;;;;;;15.03;65.91;100915.30;2033235;87;27648;-63
2022/05/08 05:06:44;;;;;;;32.60;22.32;;;;;;;15.76;64.78;100903.75;2030288;87;29846;-63
2022/05/08 05:09:46;;;;;;;27.73;21.12;;;;;;;16.39;63.70;100907.04;2030424;87;32020;-64
2022/05/08 05:12:48;;;;;;;25.00;19.67;;;;;;;16.98;62.88;100918.61;2031389;87;33859;-63
2022/05/08 05:15:50;;;;;;;28.05;19.60;;;;;;;17.49;61.41;100917.02;2035934;87;30700;-63
2022/05/08 05:18:52;;;;;;;23.73;18.70;;;;;;;17.94;60.50;100905.77;2036293;87;27756;-63
2022/05/08 05:21:54;;;;;;;25.77;18.80;;;;;;;18.37;59.51;100910.84;2036139;87;29119;-63
2022/05/08 05:24:57;;;;;;;22.85;18.20;;;;;;;18.74;58.58;100908.60;2030680;87;30970;-64
2022/05/08 05:27:59;;;;;;;27.93;19.30;;;;;;;19.04;57.58;100916.81;2030311;87;32954;-63
2022/05/08 05:31:02;;;;;;;24.80;17.85;;;;;;;19.33;57.04;100916.46;2029876;87;29526;-63
2022/05/08 05:34:04;;;;;;;23.60;17.12;;;;;;;19.61;56.47;100911.59;2033565;87;27880;-64
2022/05/08 05:37:06;;;;;;;24.87;16.40;;;;;;;19.88;55.85;100916.74;2034901;87;29578;-64
2022/05/08 05:40:10;;;;;;;23.70;16.50;;;;;;;20.19;55.24;100920.58;2035700;87;33154;-63
2022/05/08 05:43:11;;;;;;;19.35;15.35;;;;;;;20.47;54.39;100918.84;2034362;87;32973;-64
2022/05/08 05:49:35;;;;;;;16.93;13.98;;;;;;;20.87;52.51;100919.67;2030067;87;27727;-65
2022/05/08 05:52:38;;;;;;;17.60;14.90;;;;;;;20.95;51.47;100920.39;2030047;87;29223;-65
2022/05/08 05:55:41;;;;;;;23.20;14.75;;;;;;;20.97;50.81;100926.58;2035981;87;31110;-63
2022/05/08 05:58:44;;;;;;;16.00;12.85;;;;;;;20.99;50.23;100920.98;2035699;87;34343;-63
2022/05/08 06:01:46;;;;;;;17.10;13.25;;;;;;;21.12;50.23;100922.19;2035940;87;30574;-63
2022/05/08 06:04:53;;;;;;;20.02;13.72;;;;;;;21.37;49.48;100930.50;2031250;86;27696;-63
2022/05/08 06:08:05;;;;;;;18.40;13.10;;;;;;;21.60;49.27;100924.91;2028649;87;27712;-64
2022/05/08 06:11:12;;;;;;;18.40;13.65;;;;;;;21.88;49.19;100931.59;2030370;87;30999;-62
2022/05/08 06:14:19;;;;;;;18.05;13.40;;;;;;;22.33;48.26;100924.92;2033471;87;33164;-65
2022/05/08 06:17:27;;;;;;;16.12;13.35;;;;;;;22.76;47.42;100926.51;2036193;87;29548;-65
2022/05/08 06:20:29;;;;;;;16.80;13.68;;;;;;;23.21;47.11;100939.34;2036235;87;28064;-65
2022/05/08 06:23:32;;;;;;;17.92;13.70;;;;;;;23.67;46.46;100947.30;2033395;87;28704;-64
2022/05/08 06:26:34;;;;;;;17.35;14.30;;;;;;;23.82;45.39;100939.52;2029117;87;32046;-65
2022/05/08 06:29:36;;;;;;;17.25;14.13;;;;;;;23.84;45.26;100937.98;2030199;87;32806;-65
2022/05/08 06:32:38;;;;;;;16.52;13.25;;;;;;;24.32;44.98;100947.59;2034435;87;29360;-64
2022/05/08 06:35:41;;;;;;;16.52;12.93;;;;;;;24.84;44.12;100951.16;2028947;87;27803;-64
2022/05/08 06:38:43;;;;;;;19.55;13.38;;;;;;;25.22;43.82;100935.45;2030263;87;28736;-64
2022/05/08 06:41:45;;;;;;;17.73;12.55;;;;;;;25.70;42.88;100936.57;2029255;87;32226;-63
2022/05/08 06:44:47;;;;;;;19.12;11.88;;;;;;;26.13;42.00;100939.46;2034262;87;35094;-63
2022/05/08 06:47:49;;;;;;;14.80;10.98;;;;;;;26.49;41.19;100936.03;2035692;87;30611;-63
2022/05/08 06:50:51;;;;;;;14.38;10.32;;;;;;;26.90;40.76;100938.61;2035643;87;27747;-63
2022/05/08 06:53:55;;;;;;;11.15;9.53;;;;;;;27.28;39.90;100936.28;2030037;87;29275;-63
2022/05/08 06:57:07;;;;;;;11.50;10.00;;;;;;;27.70;39.80;100941.30;2030190;87;30993;-63
2022/05/08 07:03:32;;;;;;;11.30;8.88;;;;;;;28.58;38.05;100931.27;2035162;87;29795;-63
2022/05/08 07:06:36;;;;;;;10.53;9.05;;;;;;;28.92;37.38;100941.11;2035766;87;27641;-64
2022/05/08 07:09:38;;;;;;;13.48;9.73;;;;;;;29.28;37.02;100936.88;2036156;87;28816;-65
2022/05/08 07:12:40;;;;;;;13.65;9.98;;;;;;;29.51;36.56;100927.23;2032493;87;31054;-63
2022/05/08 07:15:43;;;;;;;12.00;9.50;;;;;;;29.79;35.38;100938.20;2030095;87;32958;-63
2022/05/08 07:18:45;;;;;;;12.50;9.45;;;;;;;29.95;35.37;100927.02;2029791;87;31471;-63
2022/05/08 07:21:47;;;;;;;13.15;9.15;;;;;;;30.17;34.86;100931.28;2032016;87;28249;-65
2022/05/08 07:24:50;;;;;;;12.60;8.75;;;;;;;30.39;34.65;100931.34;2035646;87;29683;-64
2022/05/08 07:27:52;;;;;;;10.80;9.08;;;;;;;30.61;34.09;100929.02;2034836;87;32231;-64
2022/05/08 07:30:54;;;;;;;9.48;8.43;;;;;;;30.87;33.78;100927.61;2036235;87;33709;-63
2022/05/08 07:37:43;;;;;;;9.73;8.73;;;;;;;31.34;32.85;100932.30;2030433;87;27705;-62
2022/05/08 07:40:51;;;;;;;10.35;8.25;;;;;;;31.49;31.84;100937.77;2034498;87;29100;-63
2022/05/08 07:44:01;;;;;;;9.55;8.30;;;;;;;31.66;31.60;100931.39;2007984;87;31946;-62
2022/05/08 07:47:10;;;;;;;11.10;8.10;;;;;;;31.61;30.76;100933.91;2033184;87;33117;-63
2022/05/08 07:50:21;;;;;;;9.93;7.72;;;;;;;31.44;30.53;100931.95;2035819;87;30152;-63
2022/05/08 07:53:24;;;;;;;18.12;8.05;;;;;;;31.41;30.39;100935.66;2031378;87;27714;-65
2022/05/08 07:56:28;;;;;;;8.80;7.08;;;;;;;31.57;29.85;100939.53;2029903;87;29892;-62
2022/05/08 07:59:30;;;;;;;8.15;7.22;;;;;;;31.76;30.05;100944.93;2030508;87;31084;-64
2022/05/08 08:02:32;;;;;;;10.63;7.15;;;;;;;31.82;29.87;100936.34;2032974;87;33790;-64
2022/05/08 08:05:34;;;;;;;9.90;6.25;;;;;;;31.91;30.04;100939.81;2035501;87;30643;-63
2022/05/08 08:08:37;;;;;;;8.48;5.78;;;;;;;31.93;29.72;100939.96;2036156;87;27758;-64
2022/05/08 08:11:41;;;;;;;6.65;5.58;;;;;;;31.79;29.00;100940.38;2033863;87;29894;-63
2022/05/08 08:14:43;;;;;;;7.40;5.60;;;;;;;31.54;28.72;100937.16;2030058;87;31045;-64
2022/05/08 08:17:45;;;;;;;6.17;4.95;;;;;;;31.46;28.64;100942.83;2029642;87;34209;-64
2022/05/08 08:20:47;;;;;;;7.15;5.60;;;;;;;31.46;28.66;100940.05;2030116;87;30483;-63
2022/05/08 08:23:49;;;;;;;6.78;5.60;;;;;;;31.61;28.71;100939.44;2035194;87;27759;-65
2022/05/08 08:26:51;;;;;;;8.55;6.30;;;;;;;31.83;28.48;100942.21;2035585;87;28756;-64
2022/05/08 08:29:54;;;;;;;10.70;5.90;;;;;;;31.57;28.13;100943.69;2035630;87;32289;-64
2022/05/08 08:32:56;;;;;;;6.97;5.55;;;;;;;31.10;28.22;100947.35;2032612;87;33930;-63
2022/05/08 08:35:59;;;;;;;5.92;5.33;;;;;;;30.66;28.39;100946.95;2032880;87;30709;-64
2022/05/08 08:39:01;;;;;;;8.45;5.45;;;;;;;30.42;28.28;100956.72;2036131;87;27946;-64
2022/05/08 08:42:22;;;;;;;9.03;5.58;;;;;;;30.29;28.38;100955.13;2033617;87;29921;-62
2022/05/08 08:48:48;;;;;;;7.92;5.78;;;;;;;30.86;28.69;100956.33;2029588;87;34195;-63
2022/05/08 08:51:50;;;;;;;;;;;;;;;31.11;28.51;100958.75;2033432;87;30212;-62
2022/05/08 08:54:53;;;;;;;11.20;7.95;;;;;;;31.18;27.87;100958.34;2035973;87;27668;-63
2022/05/08 08:57:54;;;;;;;8.40;6.15;;;;;;;31.07;27.90;100961.06;2035932;87;28709;-64
2022/05/08 09:00:56;;;;;;;9.70;6.67;;;;;;;30.87;28.35;100956.66;2035719;87;31919;-64
2022/05/08 09:04:00;;;;;;;10.95;7.53;;;;;;;30.79;28.58;100962.33;2030548;87;33169;-63
2022/05/08 09:07:02;;;;;;;9.23;7.25;;;;;;;30.76;28.94;100972.39;2030380;87;29703;-65
2022/05/08 09:10:25;;;;;;;10.93;8.53;;;;;;;30.61;28.91;100969.66;2030092;87;27693;-64
2022/05/08 09:13:29;;;;;;;9.68;8.75;;;;;;;30.33;29.12;100968.06;2034293;87;28724;-64
2022/05/08 09:16:53;;;;;;;10.13;7.95;;;;;;;30.08;29.25;100958.66;2036228;87;31036;-64
2022/05/08 09:19:55;;;;;;;12.27;7.90;;;;;;;29.75;29.46;100963.09;2032635;87;33095;-64
2022/05/08 09:23:07;;;;;;;13.68;8.48;;;;;;;29.45;29.61;100963.01;2030217;87;30479;-64
2022/05/08 09:26:09;;;;;;;11.65;7.78;;;;;;;29.19;29.77;100966.98;2030397;87;27663;-64
2022/05/08 09:29:22;;;;;;;8.55;6.67;;;;;;;28.84;29.63;100965.11;2031668;87;29953;-64
2022/05/08 09:32:42;;;;;;;12.53;7.67;;;;;;;28.57;29.23;100969.52;2035135;87;31876;-64
2022/05/08 09:35:45;;;;;;;8.65;7.20;;;;;;;28.03;29.45;100975.14;2035824;86;33779;-63
2022/05/08 09:38:57;;;;;;;15.05;6.62;;;;;;;27.53;30.52;100975.70;2034934;86;30198;-64
2022/05/08 09:42:00;;;;;;;10.23;6.15;;;;;;;27.32;30.60;100968.42;2030383;87;27702;-64
2022/05/08 09:45:07;;;;;;;9.78;5.92;;;;;;;26.92;30.39;100971.77;2030533;87;29605;-64
2022/05/08 09:48:14;;;;;;;7.47;5.87;;;;;;;26.36;30.35;100985.08;2030316;87;30962;-65
2022/05/08 09:51:16;;;;;;;7.15;5.12;;;;;;;25.78;30.99;100986.90;2033768;87;33060;-64
2022/05/08 09:54:20;;;;;;;6.67;5.87;;;;;;;25.52;31.69;100980.52;2035726;87;30553;-64
2022/05/08 09:57:23;;;;;;;9.58;6.50;;;;;;;25.40;32.22;100975.21;2036249;87;27653;-63
2022/05/08 10:00:26;;;;;;;9.35;6.78;;;;;;;25.27;33.08;100971.52;2031971;87;28741;-63
2022/05/08 10:03:30;;;;;;;9.05;6.60;;;;;;;25.02;33.38;100983.58;2032216;87;32211;-63
2022/05/08 10:06:37;;;;;;;9.08;6.92;;;;;;;24.77;33.70;100976.10;2036190;87;32969;-63
2022/05/08 10:16:58;;;;;;;10.35;5.90;;;;;;;24.19;34.75;100977.55;2029724;87;29535;-63
2022/05/08 10:20:00;;;;;;;11.33;6.62;;;;;;;24.12;34.93;100973.66;2029203;87;32259;-63
2022/05/08 10:23:03;;;;;;;6.90;6.22;;;;;;;24.14;35.40;100969.42;2035814;87;33694;-64
2022/05/08 10:26:23;;;;;;;9.65;7.33;;;;;;;24.20;35.54;100971.55;2035734;87;29539;-62
2022/05/08 10:29:25;;;;;;;9.05;7.10;;;;;;;24.18;35.87;100977.67;2034356;87;27722;-63
2022/05/08 10:32:35;;;;;;;8.93;6.65;;;;;;;23.99;36.38;100965.80;2029413;87;28817;-64
2022/05/08 10:35:39;;;;;;;9.38;7.00;;;;;;;23.96;36.72;100971.03;2034876;87;31045;-64
2022/05/08 10:38:41;;;;;;;7.20;6.28;;;;;;;23.86;36.25;100962.45;2042763;87;33209;-63
2022/05/08 10:41:44;;;;;;;5.95;5.35;;;;;;;23.82;36.68;100960.52;2042202;87;29515;-65
2022/05/08 10:44:47;;;;;;;10.13;5.90;;;;;;;23.82;36.44;100965.51;2042274;87;27751;-64
2022/05/08 10:47:50;;;;;;;9.70;5.15;;;;;;;23.87;36.47;100960.08;2042284;87;29362;-64
2022/05/08 10:50:59;;;;;;;8.60;5.55;;;;;;;23.97;36.59;100956.86;2041851;87;32050;-64
2022/05/08 10:54:11;;;;;;;8.48;5.22;;;;;;;24.06;36.37;100962.80;2042414;87;32986;-63
2022/05/08 10:57:14;;;;;;;6.87;4.90;;;;;;;24.00;36.13;100964.75;2042443;87;30026;-65
2022/05/08 11:00:23;;;;;;;11.68;5.67;;;;;;;23.90;36.42;100955.19;2041802;87;27739;-67
2022/05/08 11:03:28;;;;;;;6.70;5.20;;;;;;;24.00;36.23;100959.80;2038741;87;27757;-62
2022/05/08 11:06:31;;;;;;;9.30;6.43;;;;;;;23.83;36.17;100963.62;2046368;86;31052;-63
2022/05/08 11:09:33;;;;;;;8.50;5.22;;;;;;;23.88;36.41;100954.47;2047223;86;32987;-62
2022/05/08 11:12:36;;;;;;;5.08;4.40;;;;;;;24.04;36.84;100948.92;2026336;86;31418;-62
2022/05/08 11:15:45;;;;;;;5.20;4.55;;;;;;;24.07;36.40;100954.10;2046262;86;27688;-63
2022/05/08 11:18:48;;;;;;;7.25;4.85;;;;;;;24.04;36.40;100954.39;2046510;86;29896;-61
2022/05/08 11:21:55;;;;;;;10.00;5.30;;;;;;;24.03;36.01;100953.52;2040204;87;32315;-62
2022/05/08 11:25:16;;;;;;;10.20;4.75;;;;;;;24.06;36.09;100951.85;2034952;86;33037;-61
2022/05/08 11:28:26;;;;;;;5.85;4.97;;;;;;;24.21;36.59;100950.88;2046772;86;30132;-62
2022/05/08 11:31:27;;;;;;;6.53;5.00;;;;;;;24.41;36.35;100946.17;2046610;85;27751;-63
2022/05/08 11:38:01;;;;;;;7.45;4.70;;;;;;;24.72;36.27;100951.91;2047640;86;32364;-63
2022/05/08 11:41:05;;;;;;;5.78;5.10;;;;;;;24.71;36.18;100942.80;2047725;86;33908;-64
2022/05/08 11:44:21;;;;;;;7.62;4.50;;;;;;;24.54;35.96;100955.91;2047549;86;29367;-63
2022/05/08 11:47:23;;;;;;;6.37;4.37;;;;;;;24.30;36.21;100938.17;1982487;89;27733;-63
2022/05/08 11:50:25;;;;;;;7.20;4.95;;;;;;;24.10;36.45;100946.94;2013191;88;28179;-62
2022/05/08 11:53:27;;;;;;;6.55;4.80;;;;;;;24.02;36.19;100943.58;1982650;88;32282;-63
2022/05/08 11:56:32;;;;;;;7.67;4.25;;;;;;;24.01;36.57;100946.47;2045387;86;33378;-63
2022/05/08 11:59:36;;;;;;;8.50;5.12;;;;;;;24.09;36.90;100944.72;2047273;85;28775;-63
2022/05/08 12:02:46;;;;;;;5.17;4.00;;;;;;;24.14;36.98;100949.74;2047953;86;27674;-63
2022/05/08 12:05:49;;;;;;;6.92;3.62;;;;;;;24.21;36.71;100949.52;1982923;89;28657;-66
2022/05/08 12:08:52;;;;;;;4.65;4.12;;;;;;;24.25;36.87;100952.80;2042219;87;31061;-63
2022/05/08 12:11:54;;;;;;;5.70;4.03;;;;;;;24.27;36.63;100950.78;2042197;87;33134;-64
2022/05/08 12:15:06;;;;;;;5.95;4.40;;;;;;;24.26;36.30;100949.91;2042021;87;29435;-62
2022/05/08 12:18:05;;;;;;;8.05;3.92;;;;;;;24.25;36.38;100936.38;2047109;86;27731;-65
2022/05/08 12:21:07;;;;;;;4.72;3.40;;;;;;;24.19;36.77;100937.84;2047837;86;29597;-63
2022/05/08 12:24:13;;;;;;;6.53;3.80;;;;;;;24.24;36.90;100933.28;2005163;87;32292;-63
2022/05/08 12:27:14;;;;;;;7.10;4.10;;;;;;;24.33;36.92;100932.89;1983004;89;33049;-62
2022/05/08 12:30:16;;;;;;;10.45;4.30;;;;;;;24.43;37.18;100930.95;2041955;87;30898;-63
2022/05/08 12:33:18;;;;;;;6.15;4.00;;;;;;;24.49;36.79;100930.88;2042338;87;27811;-64
2022/05/08 12:36:20;;;;;;;6.60;3.77;;;;;;;24.47;36.54;100937.86;2037894;87;29108;-63
2022/05/08 12:39:22;;;;;;;5.42;4.45;;;;;;;24.31;36.39;100937.16;2035899;87;31796;-62
2022/05/08 12:42:26;;;;;;;8.88;4.45;;;;;;;24.15;36.70;100936.94;2036144;87;32789;-63
2022/05/08 12:45:28;;;;;;;9.20;5.22;;;;;;;23.97;37.30;100940.44;2036138;87;30181;-63
2022/05/08 12:48:30;;;;;;;6.58;4.00;;;;;;;23.78;37.54;100940.81;2033816;87;27657;-62
2022/05/08 12:51:35;;;;;;;5.28;4.10;;;;;;;23.66;37.95;100944.20;2036326;87;29684;-63
2022/05/08 12:54:37;;;;;;;5.97;4.45;;;;;;;23.57;37.93;100944.22;2036043;87;31891;-65
2022/05/08 13:00:59;;;;;;;5.10;3.85;;;;;;;23.36;38.00;100936.54;2030313;87;30537;-63
2022/05/08 13:04:03;;;;;;;4.58;3.45;;;;;;;23.38;38.14;100933.64;2029524;87;28406;-65
2022/05/08 13:07:05;;;;;;;10.60;3.60;;;;;;;23.48;38.45;100937.74;2031275;87;28592;-62
2022/05/08 13:10:08;;;;;;;7.00;3.33;;;;;;;23.52;38.54;100934.56;2035717;87;31454;-62
2022/05/08 13:13:10;;;;;;;6.12;3.40;;;;;;;23.63;38.70;100930.81;2035963;87;33942;-63
2022/05/08 13:16:14;;;;;;;4.20;3.33;;;;;;;23.66;38.23;100937.89;2035776;87;29425;-61
2022/05/08 13:19:16;;;;;;;6.37;3.05;;;;;;;23.63;38.36;100939.02;2036403;87;36720;-64
2022/05/08 13:22:18;;;;;;;4.60;2.75;;;;;;;23.63;38.05;100935.44;2035723;87;29902;-62
2022/05/08 13:25:20;;;;;;;6.45;2.90;;;;;;;23.60;38.34;100934.36;2036006;87;31173;-62
2022/05/08 13:28:22;;;;;;;4.47;3.08;;;;;;;23.71;38.48;100927.34;2032451;87;33713;-63
2022/05/08 13:31:24;;;;;;;5.08;4.58;;;;;;;23.81;38.02;100933.68;2033514;87;30532;-62
2022/05/08 13:34:30;;;;;;;5.65;3.90;;;;;;;23.82;37.43;100927.69;2035858;87;27721;-62
2022/05/08 13:37:31;;;;;;;8.13;3.35;;;;;;;23.74;37.48;100924.84;2034302;87;30025;-62
2022/05/08 13:40:34;;;;;;;4.40;2.22;;;;;;;23.66;37.09;100928.31;2031012;87;31735;-63
2022/05/08 13:43:36;;;;;;;5.70;2.87;;;;;;;23.62;37.41;100922.77;2034173;87;33990;-61
2022/05/08 13:46:38;;;;;;;2.77;2.20;;;;;;;23.62;36.93;100922.77;2034302;87;29126;-62
2022/05/08 13:49:40;;;;;;;4.17;2.40;;;;;;;23.55;36.94;100921.13;2030383;87;27731;-62
2022/05/08 13:52:43;;;;;;;3.77;2.45;;;;;;;23.52;36.93;100908.58;2029897;87;29980;-62
2022/05/08 13:55:47;;;;;;;3.37;2.17;;;;;;;23.48;37.11;100911.77;2029484;87;32300;-62
2022/05/08 13:58:50;;;;;;;4.28;2.12;;;;;;;23.43;37.42;100916.31;2034185;87;34676;-61
2022/05/08 14:01:52;;;;;;;3.65;2.33;;;;;;;23.41;37.61;100914.22;2036210;87;30104;-64
2022/05/08 14:04:56;;;;;;;6.40;2.05;;;;;;;23.43;37.57;100915.43;2035836;87;27743;-62
2022/05/08 14:07:59;;;;;;;4.40;2.87;;;;;;;23.36;37.76;100909.20;2033742;87;28746;-62
2022/05/08 14:11:01;;;;;;;2.87;1.97;;;;;;;23.40;37.72;100911.64;2030601;87;31044;-61
2022/05/08 14:14:04;;;;;;;6.47;2.70;;;;;;;23.45;37.53;100921.63;2029926;87;34284;-63
2022/05/08 14:17:05;;;;;;;2.85;2.15;;;;;;;23.36;37.43;100918.77;2030424;87;30535;-62
2022/05/08 14:20:11;;;;;;;4.20;2.52;;;;;;;23.31;37.45;100924.31;2035783;87;27730;-62
2022/05/08 14:23:13;;;;;;;4.17;2.25;;;;;;;23.21;37.48;100921.58;2035641;87;29922;-62
2022/05/08 14:26:15;;;;;;;5.22;2.20;;;;;;;23.15;37.70;100916.16;2035707;87;32632;-62
2022/05/08 14:29:18;;;;;;;2.87;2.47;;;;;;;23.09;37.47;100918.56;2031156;87;34325;-61
2022/05/08 14:39:02;;;;;;;2.87;2.30;;;;;;;22.58;37.99;100929.06;2034092;87;30191;-63
2022/05/08 14:42:05;;;;;;;3.90;2.35;;;;;;;22.49;38.10;100929.03;2036088;87;31066;-66
2022/05/08 14:45:09;;;;;;;2.45;2.00;;;;;;;22.39;38.31;100924.38;2035911;87;33109;-62
2022/05/08 14:48:12;;;;;;;2.45;2.25;;;;;;;22.31;38.57;100920.98;2033931;87;30338;-62
2022/05/08 14:51:15;;;;;;;2.62;2.30;;;;;;;22.29;38.43;100922.09;2030336;87;27660;-63
2022/05/08 14:54:16;;;;;;;4.62;2.22;;;;;;;22.28;38.55;100918.52;2029914;87;29944;-64